Time;durP1;ratioP1;P1;durP2;ratioP2;P2;SDS_P1;SDS_P2;PMS_P1;PMS_P2;Temp;Humidity;BMP_temperature;BMP_pressure;BME280_temperature;BME280_humidity;BME280_pressure;Samples;Min_cycle;Max_cycle;Signal;HPM_P1;HPM_P2
2021/03/14 00:00:55;;;;;;;218.60;205.02;;;17.60;99.90;;;;;;5093103;28;20463;-62
2021/03/14 00:03:25;;;;;;;214.90;201.27;;;17.60;99.90;;;;;;5093158;28;20027;-63
2021/03/14 00:05:53;;;;;;;219.35;205.00;;;17.60;99.90;;;;;;5093182;28;20050;-62
2021/03/14 00:08:25;;;;;;;216.60;203.52;;;17.80;99.90;;;;;;5093055;28;20032;-63
2021/03/14 00:11:05;;;;;;;216.38;203.15;;;17.70;99.90;;;;;;5093046;28;20027;-63
2021/03/14 00:13:34;;;;;;;217.77;205.23;;;17.70;99.90;;;;;;5093130;28;20449;-63
2021/03/14 00:16:04;;;;;;;215.80;203.70;;;17.80;99.90;;;;;;5093020;28;20020;-63
2021/03/14 00:18:33;;;;;;;210.43;197.77;;;17.80;99.90;;;;;;5093279;28;20264;-63
2021/03/14 00:21:02;;;;;;;210.52;197.95;;;17.50;99.90;;;;;;5092911;28;20020;-63
2021/03/14 00:23:29;;;;;;;206.95;194.27;;;17.60;99.90;;;;;;5092916;28;20055;-63
2021/03/14 00:25:57;;;;;;;200.63;188.20;;;17.60;99.90;;;;;;5092846;28;20404;-63
2021/03/14 00:28:25;;;;;;;186.60;174.43;;;17.80;99.90;;;;;;5092827;28;20023;-64
2021/03/14 00:30:54;;;;;;;186.07;174.90;;;17.70;99.90;;;;;;5092682;28;20024;-64
2021/03/14 00:33:22;;;;;;;177.50;166.23;;;17.50;99.90;;;;;;5092783;28;20091;-64
2021/03/14 00:35:49;;;;;;;171.57;160.32;;;17.50;99.90;;;;;;5091425;28;20115;-64
2021/03/14 00:38:16;;;;;;;174.00;162.70;;;17.40;99.90;;;;;;5092843;28;20095;-64
2021/03/14 00:40:44;;;;;;;166.80;155.73;;;17.50;99.90;;;;;;5092607;28;20198;-63
2021/03/14 00:43:11;;;;;;;159.73;149.23;;;17.50;99.90;;;;;;5093017;28;20020;-64
2021/03/14 00:45:40;;;;;;;156.50;146.68;;;17.40;99.90;;;;;;5092479;28;20085;-63
2021/03/14 00:48:08;;;;;;;148.00;138.02;;;17.40;99.90;;;;;;5092433;28;20108;-63
2021/03/14 00:50:41;;;;;;;142.20;132.95;;;17.20;99.90;;;;;;5095080;28;20048;-64
2021/03/14 00:53:09;;;;;;;137.73;128.00;;;17.30;99.90;;;;;;5094990;28;20020;-64
2021/03/14 00:55:36;;;;;;;140.95;131.13;;;17.00;99.90;;;;;;5096306;28;20031;-64
2021/03/14 00:58:05;;;;;;;139.57;130.27;;;17.20;99.90;;;;;;5096199;28;20017;-65
2021/03/14 01:00:32;;;;;;;151.35;141.38;;;17.10;99.90;;;;;;5096126;28;20103;-64
2021/03/14 01:03:00;;;;;;;150.68;141.13;;;17.00;99.90;;;;;;5096172;28;20121;-64
2021/03/14 01:05:27;;;;;;;154.25;143.07;;;17.20;99.90;;;;;;5095939;28;20024;-63
2021/03/14 01:07:54;;;;;;;159.65;150.05;;;17.20;99.90;;;;;;5096079;28;20055;-63
2021/03/14 01:10:22;;;;;;;162.45;152.07;;;17.30;99.90;;;;;;5095995;28;20020;-63
2021/03/14 01:12:49;;;;;;;152.68;142.85;;;17.30;99.90;;;;;;5096722;28;20024;-64
2021/03/14 01:15:17;;;;;;;148.02;138.32;;;17.30;99.90;;;;;;5095909;28;20515;-63
2021/03/14 01:17:44;;;;;;;137.13;127.90;;;17.30;99.90;;;;;;5095914;28;20373;-63
2021/03/14 01:20:16;;;;;;;147.45;138.20;;;17.50;99.90;;;;;;5095642;28;20368;-64
2021/03/14 01:22:43;;;;;;;137.18;128.95;;;17.30;99.90;;;;;;5096043;28;20051;-63
2021/03/14 01:25:12;;;;;;;128.25;119.90;;;17.10;99.90;;;;;;5096466;28;20069;-64
2021/03/14 01:27:40;;;;;;;121.28;113.22;;;17.10;99.90;;;;;;5095682;28;20496;-65
2021/03/14 01:30:08;;;;;;;129.52;120.70;;;17.00;99.90;;;;;;5095486;28;20418;-63
2021/03/14 01:32:35;;;;;;;131.48;122.63;;;17.00;99.90;;;;;;5095606;28;20016;-63
2021/03/14 01:35:03;;;;;;;128.20;119.38;;;17.10;99.90;;;;;;5095503;28;20446;-62
2021/03/14 01:37:30;;;;;;;122.93;114.72;;;17.00;99.90;;;;;;5095451;28;20024;-63
2021/03/14 01:39:57;;;;;;;125.18;116.85;;;16.70;99.90;;;;;;5095498;28;20125;-63
2021/03/14 01:42:29;;;;;;;114.82;106.47;;;16.80;99.90;;;;;;5095410;28;20105;-62
2021/03/14 01:44:57;;;;;;;110.47;102.25;;;16.80;99.90;;;;;;5095952;28;20365;-63
2021/03/14 01:47:31;;;;;;;119.00;110.82;;;16.80;99.90;;;;;;5094962;28;20024;-63
2021/03/14 01:49:59;;;;;;;121.57;113.00;;;16.80;99.90;;;;;;5095652;28;20047;-63
2021/03/14 01:52:27;;;;;;;117.45;109.35;;;16.90;99.90;;;;;;5095115;28;20027;-62
2021/03/14 01:54:55;;;;;;;133.32;124.18;;;17.10;99.90;;;;;;5095076;28;20019;-62
2021/03/14 01:57:22;;;;;;;119.55;111.65;;;17.20;99.90;;;;;;5095932;28;20023;-63
2021/03/14 01:59:50;;;;;;;110.50;102.43;;;17.10;99.90;;;;;;5094910;28;20026;-63
2021/03/14 02:02:17;;;;;;;98.85;91.32;;;17.10;99.90;;;;;;5095043;28;20027;-64
2021/03/14 02:04:45;;;;;;;81.72;74.50;;;17.20;99.90;;;;;;5094976;28;20023;-63
2021/03/14 02:07:13;;;;;;;72.32;66.28;;;17.20;99.90;;;;;;5094883;28;20024;-63
2021/03/14 02:09:41;;;;;;;74.32;67.93;;;17.20;99.90;;;;;;5094769;28;20012;-64
2021/03/14 02:12:14;;;;;;;78.50;72.07;;;17.10;99.90;;;;;;5094796;28;20047;-64
2021/03/14 02:14:42;;;;;;;68.30;62.33;;;17.30;99.90;;;;;;5094600;28;20548;-64
2021/03/14 02:17:15;;;;;;;64.50;58.90;;;17.20;99.90;;;;;;5094507;28;20027;-64
2021/03/14 02:19:52;;;;;;;66.10;60.42;;;17.20;99.90;;;;;;5094940;28;20016;-64
2021/03/14 02:22:22;;;;;;;69.90;63.83;;;17.00;99.90;;;;;;5094450;28;20048;-64
2021/03/14 02:24:56;;;;;;;70.72;65.68;;;17.10;99.90;;;;;;5094394;28;20028;-64
2021/03/14 02:27:24;;;;;;;74.72;68.93;;;17.00;99.90;;;;;;5094351;28;20430;-64
2021/03/14 02:29:51;;;;;;;73.25;67.53;;;17.10;99.90;;;;;;5094354;28;20050;-64
2021/03/14 02:32:20;;;;;;;71.63;65.38;;;17.10;99.90;;;;;;5094859;28;20035;-63
2021/03/14 02:34:52;;;;;;;65.43;59.70;;;17.00;99.90;;;;;;5094417;28;20099;-61
2021/03/14 02:37:22;;;;;;;72.53;67.00;;;16.90;99.90;;;;;;5094361;28;20032;-63
2021/03/14 02:39:52;;;;;;;77.05;71.47;;;17.20;99.90;;;;;;5094062;28;20131;-60
2021/03/14 02:42:20;;;;;;;73.38;68.18;;;17.10;99.90;;;;;;5092914;28;20107;-61
2021/03/14 02:44:53;;;;;;;71.40;65.72;;;17.30;99.90;;;;;;5092934;28;20020;-59
2021/03/14 02:47:25;;;;;;;69.40;64.05;;;17.50;99.90;;;;;;5094188;28;20024;-60
2021/03/14 02:49:52;;;;;;;71.50;65.95;;;17.30;99.90;;;;;;5093969;28;20024;-58
2021/03/14 02:52:23;;;;;;;72.13;66.97;;;17.40;99.90;;;;;;5093835;28;20032;-60
2021/03/14 02:54:53;;;;;;;71.53;66.60;;;17.40;99.90;;;;;;5094179;28;20044;-60
2021/03/14 02:57:24;;;;;;;72.82;67.40;;;17.50;99.90;;;;;;5093859;28;20044;-63
2021/03/14 02:59:56;;;;;;;72.30;66.80;;;17.30;99.90;;;;;;5093876;28;20020;-60
2021/03/14 03:02:25;;;;;;;71.50;66.50;;;17.30;99.90;;;;;;5093693;28;20153;-60
2021/03/14 03:04:52;;;;;;;65.25;60.92;;;17.30;99.90;;;;;;5093741;28;20046;-59
2021/03/14 03:07:21;;;;;;;62.33;57.92;;;17.30;99.90;;;;;;5093757;28;20050;-60
2021/03/14 03:09:52;;;;;;;57.58;53.22;;;17.20;99.90;;;;;;5093639;28;20018;-61
2021/03/14 03:12:24;;;;;;;59.30;54.90;;;17.10;99.90;;;;;;5092980;28;20028;-62
2021/03/14 03:14:55;;;;;;;61.42;57.10;;;17.10;99.90;;;;;;5093687;28;20024;-61
2021/03/14 03:17:25;;;;;;;;;;;17.00;99.90;;;;;;5093916;28;20050;-62
2021/03/14 03:19:54;;;;;;;57.30;53.30;;;17.10;99.90;;;;;;5093426;28;20380;-61
2021/03/14 03:22:23;;;;;;;60.33;56.38;;;17.10;99.90;;;;;;5093680;28;20237;-61
2021/03/14 03:24:53;;;;;;;61.67;57.13;;;17.10;99.90;;;;;;5093470;28;20016;-61
2021/03/14 03:27:21;;;;;;;59.92;55.03;;;17.10;99.90;;;;;;5093366;28;20031;-61
2021/03/14 03:29:50;;;;;;;62.03;57.63;;;17.10;99.90;;;;;;5093314;28;20034;-61
2021/03/14 03:32:18;;;;;;;72.80;68.07;;;17.10;99.90;;;;;;5093403;28;20024;-62
2021/03/14 03:34:46;;;;;;;70.97;66.40;;;17.10;99.90;;;;;;5093397;28;20031;-61
2021/03/14 03:37:13;;;;;;;67.20;62.72;;;17.00;99.90;;;;;;5093303;28;20125;-61
2021/03/14 03:39:40;;;;;;;69.85;65.07;;;17.00;99.90;;;;;;5093468;28;20093;-60
2021/03/14 03:42:13;;;;;;;73.32;68.53;;;17.00;99.90;;;;;;5093227;28;20063;-61
2021/03/14 03:44:43;;;;;;;69.40;64.95;;;16.90;99.90;;;;;;5093037;28;20127;-64
2021/03/14 03:47:14;;;;;;;68.80;64.05;;;16.90;99.90;;;;;;5093167;28;20022;-64
2021/03/14 03:49:46;;;;;;;73.72;68.75;;;16.90;99.90;;;;;;5093100;28;20032;-63
2021/03/14 03:52:16;;;;;;;70.00;65.47;;;17.00;99.90;;;;;;5093190;28;20529;-66
2021/03/14 03:54:46;;;;;;;72.63;67.60;;;16.80;99.90;;;;;;5093142;28;20469;-63
2021/03/14 03:57:15;;;;;;;62.77;57.90;;;16.90;99.90;;;;;;5093173;28;20075;-64
2021/03/14 03:59:43;;;;;;;67.45;62.47;;;16.50;99.90;;;;;;5093392;28;20095;-64
2021/03/14 04:02:14;;;;;;;75.15;70.00;;;16.50;99.90;;;;;;5093124;28;20472;-64
2021/03/14 04:04:44;;;;;;;78.40;73.03;;;16.50;99.90;;;;;;5093394;28;20488;-64
2021/03/14 04:07:13;;;;;;;78.53;73.30;;;16.70;99.90;;;;;;5093033;28;20020;-64
2021/03/14 04:09:44;;;;;;;77.88;72.57;;;16.80;99.90;;;;;;5092985;28;20064;-66
2021/03/14 04:12:11;;;;;;;;;;;16.80;99.90;;;;;;5091956;28;20076;-66
2021/03/14 04:14:39;;;;;;;78.63;73.45;;;16.80;99.90;;;;;;5091633;28;19904;-68
2021/03/14 04:17:07;;;;;;;71.55;66.70;;;16.80;99.90;;;;;;5092996;28;20031;-66
2021/03/14 04:19:34;;;;;;;66.03;60.80;;;16.80;99.90;;;;;;5092778;28;20198;-66
2021/03/14 04:22:04;;;;;;;75.25;70.07;;;16.70;99.90;;;;;;5091620;28;20369;-68
2021/03/14 04:24:32;;;;;;;76.05;71.28;;;16.50;99.90;;;;;;5095416;28;20101;-64
2021/03/14 04:27:03;;;;;;;79.30;74.35;;;16.30;99.90;;;;;;5096687;28;20032;-67
2021/03/14 04:29:32;;;;;;;81.60;76.30;;;16.30;99.90;;;;;;5097182;28;20080;-65
2021/03/14 04:32:01;;;;;;;88.20;81.97;;;16.10;99.90;;;;;;5096553;28;20031;-66
2021/03/14 04:34:29;;;;;;;81.60;76.22;;;16.10;99.90;;;;;;5095313;28;20028;-65
2021/03/14 04:36:57;;;;;;;82.97;77.28;;;16.10;99.90;;;;;;5096622;28;20046;-65
2021/03/14 04:39:24;;;;;;;87.03;80.95;;;16.20;99.90;;;;;;5096262;28;20036;-65
2021/03/14 04:41:53;;;;;;;87.50;81.55;;;16.30;99.90;;;;;;5096539;28;20020;-66
2021/03/14 04:44:21;;;;;;;85.78;79.43;;;16.30;99.90;;;;;;5095235;28;20115;-63
2021/03/14 04:46:49;;;;;;;81.70;75.75;;;16.10;99.90;;;;;;5096337;28;20473;-64
2021/03/14 04:49:19;;;;;;;84.53;78.88;;;16.10;99.90;;;;;;5096397;28;20047;-67
2021/03/14 04:51:47;;;;;;;84.43;78.90;;;16.10;99.90;;;;;;5096241;28;20058;-66
2021/03/14 04:54:18;;;;;;;82.75;77.13;;;16.10;99.90;;;;;;5096141;28;20024;-65
2021/03/14 04:56:49;;;;;;;83.70;77.63;;;16.10;99.90;;;;;;5096389;28;20091;-65
2021/03/14 04:59:22;;;;;;;87.70;81.82;;;16.00;99.90;;;;;;5096155;28;20028;-65
2021/03/14 05:01:54;;;;;;;89.25;83.18;;;16.10;99.90;;;;;;5096146;28;20173;-66
2021/03/14 05:04:23;;;;;;;84.35;78.13;;;16.20;99.90;;;;;;5096209;28;20028;-65
2021/03/14 05:06:54;;;;;;;91.45;85.13;;;16.30;99.90;;;;;;5095949;28;20020;-66
2021/03/14 05:09:22;;;;;;;97.45;90.68;;;16.20;99.90;;;;;;5096035;28;20123;-66
2021/03/14 05:11:59;;;;;;;90.50;83.72;;;16.20;99.90;;;;;;5095812;28;20028;-66
2021/03/14 05:14:26;;;;;;;90.28;84.13;;;16.20;99.90;;;;;;5095959;28;20089;-65
2021/03/14 05:16:57;;;;;;;88.95;82.88;;;16.20;99.90;;;;;;5096307;28;20020;-66
2021/03/14 05:19:25;;;;;;;75.15;69.28;;;16.00;99.90;;;;;;5096236;28;20070;-66
2021/03/14 05:21:52;;;;;;;76.85;70.68;;;16.00;99.90;;;;;;5095548;28;20028;-66
2021/03/14 05:24:24;;;;;;;78.18;72.47;;;16.00;99.90;;;;;;5095653;28;20063;-66
2021/03/14 05:26:52;;;;;;;88.63;82.18;;;15.90;99.90;;;;;;5095678;28;20027;-66
2021/03/14 05:29:20;;;;;;;85.07;78.90;;;15.70;99.90;;;;;;5095360;28;20106;-66
2021/03/14 05:31:48;;;;;;;82.95;76.90;;;15.80;99.90;;;;;;5095426;28;20032;-65
2021/03/14 05:34:18;;;;;;;84.40;78.28;;;15.70;99.90;;;;;;5094106;28;20017;-65
2021/03/14 05:36:46;;;;;;;85.50;78.95;;;15.70;99.90;;;;;;5094992;28;20047;-64
2021/03/14 05:39:14;;;;;;;85.20;78.90;;;15.80;99.90;;;;;;5095378;28;20381;-65
2021/03/14 05:41:42;;;;;;;81.90;76.00;;;15.80;99.90;;;;;;5095422;28;20030;-66
2021/03/14 05:44:11;;;;;;;76.57;70.68;;;15.70;99.90;;;;;;5095282;28;20039;-65
2021/03/14 05:46:39;;;;;;;77.45;72.03;;;15.70;99.90;;;;;;5093814;28;20035;-65
2021/03/14 05:49:08;;;;;;;87.10;80.68;;;15.70;99.90;;;;;;5095330;28;20027;-64
2021/03/14 05:51:41;;;;;;;90.75;84.43;;;15.60;99.90;;;;;;5095165;28;20106;-65
2021/03/14 05:54:11;;;;;;;88.95;82.60;;;15.70;99.90;;;;;;5095785;28;20043;-67
2021/03/14 05:56:40;;;;;;;;;;;15.70;99.90;;;;;;5095849;28;20507;-67
2021/03/14 05:59:10;;;;;;;86.25;80.85;;;15.70;99.90;;;;;;5094998;28;19904;-67
2021/03/14 06:01:38;;;;;;;89.35;83.65;;;15.80;99.90;;;;;;5094761;28;20027;-66
2021/03/14 06:04:10;;;;;;;88.00;81.95;;;15.60;99.90;;;;;;5094804;28;20103;-66
2021/03/14 06:06:38;;;;;;;87.80;81.93;;;15.60;99.90;;;;;;5094819;28;20035;-66
2021/03/14 06:09:06;;;;;;;82.30;76.70;;;15.50;99.90;;;;;;5095005;28;20016;-65
2021/03/14 06:11:33;;;;;;;86.22;79.72;;;15.50;99.90;;;;;;5094630;28;20024;-66
2021/03/14 06:14:03;;;;;;;87.20;81.15;;;15.40;99.90;;;;;;5093383;28;20103;-64
2021/03/14 06:16:32;;;;;;;91.78;85.30;;;15.50;99.90;;;;;;5094633;28;20418;-64
2021/03/14 06:18:59;;;;;;;84.90;78.70;;;15.30;99.90;;;;;;5094609;28;20028;-64
2021/03/14 06:21:28;;;;;;;85.90;79.85;;;15.40;99.90;;;;;;5094738;28;20020;-65
2021/03/14 06:24:00;;;;;;;79.65;73.38;;;15.60;99.90;;;;;;5094990;28;20052;-65
2021/03/14 06:26:47;;;;;;;83.30;76.55;;;15.50;99.90;;;;;;5094820;28;20026;-64
2021/03/14 06:29:20;;;;;;;86.43;79.28;;;15.50;99.90;;;;;;5094249;28;20081;-65
2021/03/14 06:31:55;;;;;;;86.00;79.72;;;15.50;99.90;;;;;;5094577;28;20035;-65
2021/03/14 06:34:26;;;;;;;86.18;79.88;;;15.60;99.90;;;;;;5094250;28;20480;-65
2021/03/14 06:36:55;;;;;;;90.65;84.40;;;15.60;99.90;;;;;;5094315;28;20020;-64
2021/03/14 06:39:28;;;;;;;93.22;86.20;;;15.60;99.90;;;;;;5094119;28;20069;-65
2021/03/14 06:41:56;;;;;;;84.07;77.03;;;15.70;99.90;;;;;;5094197;28;20439;-65
2021/03/14 06:44:35;;;;;;;83.35;77.15;;;15.70;99.90;;;;;;5094961;28;20457;-63
2021/03/14 06:47:07;;;;;;;90.90;84.45;;;15.70;99.90;;;;;;5093176;28;20038;-64
2021/03/14 06:49:42;;;;;;;99.15;91.90;;;15.40;99.90;;;;;;5092678;28;20111;-65
2021/03/14 06:52:10;;;;;;;95.68;88.90;;;15.40;99.90;;;;;;5093782;28;20036;-62
2021/03/14 06:54:45;;;;;;;92.45;85.72;;;15.30;99.90;;;;;;5093838;28;20024;-63
2021/03/14 06:57:26;;;;;;;93.25;86.88;;;15.40;99.90;;;;;;5093924;28;20016;-63
2021/03/14 06:59:55;;;;;;;93.35;87.03;;;15.50;99.90;;;;;;5093902;28;20085;-64
2021/03/14 07:02:24;;;;;;;90.70;84.32;;;15.40;99.90;;;;;;5093747;28;20526;-63
2021/03/14 07:05:00;;;;;;;92.85;86.47;;;15.40;99.90;;;;;;5093777;28;20020;-63
2021/03/14 07:07:42;;;;;;;85.63;79.80;;;15.40;99.90;;;;;;5093642;28;20073;-62
2021/03/14 07:10:13;;;;;;;95.15;89.07;;;15.30;99.90;;;;;;5093691;28;20070;-62
2021/03/14 07:12:45;;;;;;;97.43;90.68;;;15.10;99.90;;;;;;5094184;28;20064;-62
2021/03/14 07:15:17;;;;;;;96.43;89.97;;;15.10;99.90;;;;;;5093603;28;20102;-63
2021/03/14 07:17:49;;;;;;;96.25;89.68;;;15.00;99.90;;;;;;5093629;28;20012;-62
2021/03/14 07:20:19;;;;;;;95.78;89.20;;;15.00;99.90;;;;;;5094082;28;20024;-62
2021/03/14 07:23:08;;;;;;;97.03;90.28;;;15.10;99.90;;;;;;5093400;28;20047;-63
2021/03/14 07:25:42;;;;;;;100.72;93.47;;;15.00;99.90;;;;;;5093294;28;20067;-62
2021/03/14 07:28:11;;;;;;;97.90;91.25;;;14.90;99.90;;;;;;5093970;28;20570;-63
2021/03/14 07:30:38;;;;;;;99.47;92.82;;;14.80;99.90;;;;;;5091956;28;20045;-63
2021/03/14 07:33:06;;;;;;;92.97;86.47;;;14.90;99.90;;;;;;5093327;28;20027;-63
2021/03/14 07:35:34;;;;;;;96.57;89.90;;;14.80;99.90;;;;;;5093402;28;20027;-62
2021/03/14 07:38:01;;;;;;;94.18;87.43;;;14.80;99.90;;;;;;5093334;28;20016;-63
2021/03/14 07:40:30;;;;;;;96.90;90.25;;;14.80;99.90;;;;;;5093532;28;20113;-62
2021/03/14 07:43:00;;;;;;;93.97;87.65;;;14.60;99.90;;;;;;5093274;28;20023;-62
2021/03/14 07:45:29;;;;;;;94.80;88.07;;;14.70;99.90;;;;;;5093430;28;20028;-62
2021/03/14 07:47:58;;;;;;;87.40;80.93;;;14.70;99.90;;;;;;5093275;28;20028;-62
2021/03/14 07:50:45;;;;;;;90.55;83.85;;;14.70;99.90;;;;;;5093168;28;20024;-63
2021/03/14 07:53:17;;;;;;;96.25;89.22;;;14.60;99.90;;;;;;5093283;28;20022;-64
2021/03/14 07:55:52;;;;;;;94.75;87.97;;;14.70;99.90;;;;;;5093259;28;20061;-63
2021/03/14 07:58:24;;;;;;;90.03;82.65;;;14.70;99.90;;;;;;5093774;28;20100;-63
2021/03/14 08:00:51;;;;;;;92.50;86.20;;;14.60;99.90;;;;;;5097350;28;20016;-63
2021/03/14 08:03:35;;;;;;;91.88;85.20;;;14.70;99.90;;;;;;5095886;28;20484;-63
2021/03/14 08:06:02;;;;;;;91.95;85.05;;;14.70;99.90;;;;;;5097853;28;20020;-59
2021/03/14 08:08:33;;;;;;;89.85;82.80;;;14.60;99.90;;;;;;5097008;28;20396;-63
2021/03/14 08:11:01;;;;;;;89.75;82.32;;;14.70;99.90;;;;;;5097673;28;20020;-63
2021/03/14 08:13:31;;;;;;;87.15;80.47;;;14.60;99.90;;;;;;5097099;28;20491;-65
2021/03/14 08:16:03;;;;;;;84.30;78.53;;;14.50;99.90;;;;;;5095746;28;20030;-64
2021/03/14 08:18:57;;;;;;;87.97;81.03;;;14.60;99.90;;;;;;5097294;28;20047;-63
2021/03/14 08:21:28;;;;;;;92.72;85.68;;;14.40;99.90;;;;;;5092093;28;20028;-63
2021/03/14 08:23:57;;;;;;;91.07;84.18;;;14.50;99.90;;;;;;5097451;28;20372;-63
2021/03/14 08:26:28;;;;;;;89.38;82.20;;;14.50;99.90;;;;;;5096917;28;20039;-63
2021/03/14 08:28:55;;;;;;;;;;;14.60;99.90;;;;;;5095928;28;20032;-64
2021/03/14 08:31:48;;;;;;;88.38;81.43;;;14.60;99.90;;;;;;5096517;28;20007;-63
2021/03/14 08:34:26;;;;;;;86.45;79.70;;;14.60;99.90;;;;;;5095415;28;20065;-63
2021/03/14 08:36:55;;;;;;;89.50;82.20;;;14.50;99.90;;;;;;5097200;28;20035;-63
2021/03/14 08:39:29;;;;;;;83.82;77.13;;;14.50;99.90;;;;;;5096441;28;20074;-63
2021/03/14 08:41:58;;;;;;;84.07;77.18;;;14.50;99.90;;;;;;5096573;28;20048;-63
2021/03/14 08:44:40;;;;;;;85.57;78.88;;;14.40;99.90;;;;;;5096553;28;20522;-64
2021/03/14 08:47:12;;;;;;;88.30;81.25;;;14.40;99.90;;;;;;5096448;28;20048;-62
2021/03/14 08:49:44;;;;;;;88.45;81.60;;;14.50;99.90;;;;;;5096462;28;20067;-64
2021/03/14 08:52:12;;;;;;;87.07;80.47;;;14.30;99.90;;;;;;5096841;28;20028;-63
2021/03/14 08:54:44;;;;;;;83.20;76.45;;;14.40;99.90;;;;;;5096262;28;20024;-62
2021/03/14 08:57:14;;;;;;;89.20;82.57;;;14.50;99.90;;;;;;5096298;28;20369;-62
2021/03/14 08:59:57;;;;;;;85.15;78.00;;;14.40;99.90;;;;;;5096237;28;20024;-63
2021/03/14 09:02:28;;;;;;;88.05;80.57;;;14.50;99.90;;;;;;5096415;28;20499;-63
2021/03/14 09:05:14;;;;;;;90.40;83.32;;;14.50;99.90;;;;;;5096746;28;20024;-60
2021/03/14 09:07:57;;;;;;;86.32;79.60;;;14.30;99.90;;;;;;5096601;28;20070;-64
2021/03/14 09:10:24;;;;;;;92.75;86.10;;;14.40;99.90;;;;;;5094842;28;20081;-63
2021/03/14 09:12:59;;;;;;;90.43;83.75;;;14.40;99.90;;;;;;5096066;28;20016;-63
2021/03/14 09:15:28;;;;;;;90.43;83.43;;;14.40;99.90;;;;;;5096448;28;20020;-64
2021/03/14 09:17:59;;;;;;;89.97;83.18;;;14.40;99.90;;;;;;5095833;28;20026;-63
2021/03/14 09:20:27;;;;;;;88.72;82.03;;;14.50;99.90;;;;;;5096126;28;20028;-63
2021/03/14 09:22:55;;;;;;;85.22;78.22;;;14.50;99.90;;;;;;5095720;28;20020;-63
2021/03/14 09:25:22;;;;;;;87.47;80.25;;;14.50;99.90;;;;;;5095791;28;20385;-63
2021/03/14 09:27:49;;;;;;;83.07;76.38;;;14.50;99.90;;;;;;5095669;28;20024;-63
2021/03/14 09:30:18;;;;;;;85.38;78.78;;;14.50;99.90;;;;;;5095492;28;20024;-63
2021/03/14 09:32:51;;;;;;;89.68;82.95;;;14.50;99.90;;;;;;5095638;28;20016;-64
2021/03/14 09:35:27;;;;;;;91.55;84.97;;;14.50;99.90;;;;;;5095916;28;20031;-65
2021/03/14 09:38:11;;;;;;;90.20;82.72;;;14.60;99.90;;;;;;5096549;28;20020;-65
2021/03/14 09:40:39;;;;;;;90.03;82.70;;;14.50;99.90;;;;;;5094016;28;20492;-65
2021/03/14 09:43:26;;;;;;;91.70;85.18;;;14.50;99.90;;;;;;5095932;28;20103;-65
2021/03/14 09:45:56;;;;;;;87.40;80.75;;;14.50;99.90;;;;;;5094075;28;20031;-65
2021/03/14 09:48:29;;;;;;;50.67;45.70;;;14.60;99.90;;;;;;5095375;28;20500;-63
2021/03/14 09:51:05;;;;;;;89.57;82.93;;;14.50;99.90;;;;;;5095652;28;20028;-63
2021/03/14 09:53:36;;;;;;;90.57;83.60;;;14.60;99.90;;;;;;5095490;28;20027;-62
2021/03/14 09:56:05;;;;;;;89.45;83.30;;;14.50;99.90;;;;;;5096024;28;20058;-62
2021/03/14 09:58:33;;;;;;;94.87;88.03;;;14.50;99.90;;;;;;5095150;28;20073;-63
2021/03/14 10:01:01;;;;;;;91.13;84.88;;;14.50;99.90;;;;;;5095125;28;20052;-63
2021/03/14 10:03:31;;;;;;;93.70;86.75;;;14.50;99.90;;;;;;5095063;28;20028;-63
2021/03/14 10:06:00;;;;;;;81.15;74.75;;;14.70;99.90;;;;;;5095531;28;20027;-62
2021/03/14 10:08:33;;;;;;;82.95;76.15;;;14.60;99.90;;;;;;5094910;28;20020;-62
2021/03/14 10:11:04;;;;;;;86.53;79.10;;;14.60;99.90;;;;;;5095033;28;20032;-63
2021/03/14 10:13:33;;;;;;;85.95;78.68;;;14.60;99.90;;;;;;5094728;28;20476;-64
2021/03/14 10:16:04;;;;;;;82.95;76.65;;;14.60;99.90;;;;;;5094761;28;20016;-62
2021/03/14 10:18:31;;;;;;;80.43;74.00;;;14.70;99.90;;;;;;5095173;28;20023;-62
2021/03/14 10:21:18;;;;;;;74.47;67.95;;;14.60;99.90;;;;;;5094485;28;20134;-62
2021/03/14 10:23:47;;;;;;;79.20;72.75;;;14.70;99.90;;;;;;5094930;28;20404;-62
2021/03/14 10:26:16;;;;;;;72.97;66.90;;;14.80;99.90;;;;;;5095081;28;20096;-63
2021/03/14 10:28:47;;;;;;;71.50;65.32;;;14.70;99.90;;;;;;5094350;28;20111;-63
2021/03/14 10:31:15;;;;;;;;;;;14.70;99.90;;;;;;5094621;28;20055;-62
2021/03/14 10:33:44;;;;;;;77.97;71.63;;;14.80;99.90;;;;;;5094368;28;20279;-62
2021/03/14 10:36:15;;;;;;;77.88;71.57;;;14.60;99.90;;;;;;5094245;28;20020;-62
2021/03/14 10:38:52;;;;;;;80.60;74.10;;;14.70;99.90;;;;;;5094123;28;20020;-62
2021/03/14 10:41:22;;;;;;;85.47;78.30;;;14.70;99.90;;;;;;5094167;28;20034;-63
2021/03/14 10:44:00;;;;;;;77.77;71.73;;;14.80;99.90;;;;;;5094265;28;20073;-62
2021/03/14 10:46:55;;;;;;;79.00;72.90;;;14.70;99.90;;;;;;5094093;28;20306;-63
2021/03/14 10:49:25;;;;;;;78.93;73.05;;;14.60;99.90;;;;;;5092109;28;20063;-62
2021/03/14 10:51:56;;;;;;;78.25;72.10;;;14.70;99.90;;;;;;5094023;28;20067;-62
2021/03/14 10:54:34;;;;;;;80.85;74.47;;;14.80;99.90;;;;;;5093983;28;20153;-62
2021/03/14 10:57:02;;;;;;;81.03;74.15;;;14.70;99.90;;;;;;5094653;28;20032;-63
2021/03/14 10:59:32;;;;;;;78.50;72.25;;;14.60;99.90;;;;;;5093930;28;20020;-61
2021/03/14 11:02:24;;;;;;;80.87;74.20;;;14.70;99.90;;;;;;5094276;28;20036;-62
2021/03/14 11:04:58;;;;;;;81.15;75.15;;;14.60;99.90;;;;;;5093765;28;20306;-61
2021/03/14 11:07:29;;;;;;;85.07;78.47;;;14.60;99.90;;;;;;5093830;28;20052;-63
2021/03/14 11:10:12;;;;;;;;;;;14.60;99.90;;;;;;5094199;28;20027;-61
2021/03/14 11:12:50;;;;;;;88.50;82.28;;;14.60;99.90;;;;;;5093656;28;19912;-62
2021/03/14 11:15:32;;;;;;;87.78;81.55;;;14.40;99.90;;;;;;5093792;28;20050;-62
2021/03/14 11:18:03;;;;;;;90.55;84.43;;;14.30;99.90;;;;;;5094202;28;20069;-62
2021/03/14 11:20:31;;;;;;;86.55;80.38;;;14.40;99.90;;;;;;5093897;28;20027;-61
2021/03/14 11:23:02;;;;;;;84.95;78.55;;;14.30;99.90;;;;;;5093641;28;20020;-62
2021/03/14 11:25:30;;;;;;;84.78;78.65;;;14.40;99.90;;;;;;5093617;28;20520;-61
2021/03/14 11:27:59;;;;;;;86.13;80.03;;;14.40;99.90;;;;;;5093552;28;20024;-61
2021/03/14 11:30:29;;;;;;;86.32;80.03;;;14.30;99.90;;;;;;5092025;28;20031;-62
2021/03/14 11:32:58;;;;;;;81.82;76.00;;;14.30;99.90;;;;;;5091631;28;20358;-62
2021/03/14 11:35:25;;;;;;;84.88;79.32;;;14.30;99.90;;;;;;5093386;28;20028;-60
2021/03/14 11:37:52;;;;;;;87.00;81.25;;;14.30;99.90;;;;;;5093518;28;20138;-61
2021/03/14 11:40:19;;;;;;;87.47;81.55;;;14.30;99.90;;;;;;5093126;28;20521;-62
2021/03/14 11:42:48;;;;;;;84.38;78.80;;;14.50;99.90;;;;;;5093324;28;20020;-62
2021/03/14 11:45:16;;;;;;;86.13;80.13;;;14.50;99.90;;;;;;5093605;28;20017;-61
2021/03/14 11:47:44;;;;;;;81.47;76.13;;;14.60;99.90;;;;;;5093256;28;20059;-61
2021/03/14 11:50:12;;;;;;;81.90;76.35;;;14.60;99.90;;;;;;5093147;28;20490;-62
2021/03/14 11:52:39;;;;;;;83.03;77.30;;;14.70;99.90;;;;;;5093220;28;20107;-62
2021/03/14 11:55:07;;;;;;;81.93;76.55;;;14.60;99.90;;;;;;5093185;28;20016;-62
2021/03/14 11:57:34;;;;;;;81.32;76.05;;;14.60;99.90;;;;;;5093178;28;20062;-61
2021/03/14 12:00:03;;;;;;;84.68;79.22;;;14.70;99.90;;;;;;5093131;28;20019;-62
2021/03/14 12:02:30;;;;;;;82.32;76.88;;;14.80;99.90;;;;;;5094238;28;20106;-62
2021/03/14 12:04:58;;;;;;;85.82;80.38;;;14.70;99.90;;;;;;5093115;28;20049;-62
2021/03/14 12:07:25;;;;;;;84.45;79.25;;;14.80;99.90;;;;;;5093129;28;20029;-62
2021/03/14 12:09:53;;;;;;;85.00;79.57;;;14.80;99.90;;;;;;5093114;28;20035;-63
2021/03/14 12:12:21;;;;;;;86.50;81.10;;;14.80;99.90;;;;;;5093743;28;20119;-63
2021/03/14 12:14:48;;;;;;;88.20;82.45;;;14.80;99.90;;;;;;5093077;28;20019;-63
2021/03/14 12:17:15;;;;;;;85.20;80.20;;;14.80;99.90;;;;;;5093325;28;20028;-62
2021/03/14 12:19:43;;;;;;;82.85;77.80;;;14.80;99.90;;;;;;5093033;28;20013;-63
2021/03/14 12:22:10;;;;;;;83.88;78.97;;;14.80;99.90;;;;;;5093484;28;20107;-62
2021/03/14 12:24:38;;;;;;;82.93;77.65;;;14.80;99.90;;;;;;5093233;28;20040;-62
2021/03/14 12:27:06;;;;;;;84.03;78.72;;;14.80;99.90;;;;;;5092884;28;20418;-62
2021/03/14 12:29:33;;;;;;;82.05;77.13;;;14.80;99.90;;;;;;5092872;28;20017;-62
2021/03/14 12:32:33;;;;;;;78.07;73.13;;;14.90;99.90;;;;;;5091610;28;20055;-63
2021/03/14 12:35:00;;;;;;;78.45;73.30;;;14.90;99.90;;;;;;5093144;28;20069;-62
2021/03/14 12:37:28;;;;;;;79.40;74.50;;;15.00;99.90;;;;;;5092837;28;20411;-62
2021/03/14 12:39:55;;;;;;;80.55;75.40;;;15.00;99.90;;;;;;5092617;28;20181;-62
2021/03/14 12:42:22;;;;;;;79.45;74.47;;;15.00;99.90;;;;;;5092647;28;20103;-63